Terminal Aerodrome Forecast
Issued by NWS Newport/Morehead City, NC

Home | Current Version | Previous Version | Text Only | Print | Product List | Glossary On
Versions: 1 2 3 4 5 6 7 8 9 10 11 12 13 14 15 16 17 18 19
000
FTUS42 KMHX 030541
TAFEWN
TAF
KEWN 030541Z 0306/0406 04008KT P6SM SCT025 BKN050
     FM030900 04005KT P6SM BKN025
     FM031600 08005KT P6SM VCSH SCT010 OVC020
     FM040000 18008KT 5SM BR OVC005=

USA.gov is the U.S. government's official web portal to all federal, state and local government web resources and services.